Time;durP1;ratioP1;P1;durP2;ratioP2;P2;SDS_P1;SDS_P2;PMS_P1;PMS_P2;Temp;Humidity;BMP_temperature;BMP_pressure;BME280_temperature;BME280_humidity;BME280_pressure;Samples;Min_cycle;Max_cycle;Signal;HPM_P1;HPM_P2
2023/09/27 00:01:56;;;;;;;13.57;6.60;;;17.20;99.90;;;;;;5073709;28;20552;-75
2023/09/27 00:04:22;;;;;;;9.43;7.32;;;17.20;99.90;;;;;;5051625;28;20136;-75
2023/09/27 00:06:47;;;;;;;10.50;7.18;;;17.20;99.90;;;;;;5072634;28;20025;-75
2023/09/27 00:09:14;;;;;;;8.07;6.97;;;17.20;99.90;;;;;;5051795;28;20052;-75
2023/09/27 00:11:40;;;;;;;10.05;7.85;;;17.20;99.90;;;;;;5067880;28;20467;-75
2023/09/27 00:14:06;;;;;;;9.77;7.10;;;17.20;99.90;;;;;;5073136;28;20052;-76
2023/09/27 00:16:32;;;;;;;9.98;7.55;;;17.10;99.90;;;;;;5066497;28;20039;-75
2023/09/27 00:18:58;;;;;;;10.63;7.03;;;17.10;99.90;;;;;;5070253;28;20016;-75
2023/09/27 00:21:23;;;;;;;10.20;7.72;;;17.10;99.90;;;;;;5072355;28;20041;-75
2023/09/27 00:23:49;;;;;;;8.52;7.60;;;17.10;99.90;;;;;;5069951;28;20075;-75
2023/09/27 00:26:14;;;;;;;12.50;8.43;;;17.00;99.90;;;;;;5070881;28;20380;-75
2023/09/27 00:28:40;;;;;;;10.70;7.60;;;17.00;99.90;;;;;;5070952;28;20461;-75
2023/09/27 00:31:06;;;;;;;9.05;7.93;;;17.00;99.90;;;;;;5071690;28;20043;-75
2023/09/27 00:33:31;;;;;;;9.95;7.95;;;17.00;99.90;;;;;;5073138;28;20465;-75
2023/09/27 00:35:57;;;;;;;13.77;8.10;;;17.00;99.90;;;;;;5069559;28;20055;-75
2023/09/27 00:38:24;;;;;;;11.90;8.10;;;17.00;99.90;;;;;;5070478;28;20031;-75
2023/09/27 00:40:50;;;;;;;10.10;7.53;;;17.00;99.90;;;;;;5070122;28;20073;-75
2023/09/27 00:43:26;;;;;;;12.55;9.02;;;16.90;99.90;;;;;;5048040;28;20186;-75
2023/09/27 00:45:56;;;;;;;12.07;9.15;;;16.80;99.90;;;;;;5072149;28;20104;-76
2023/09/27 00:48:23;;;;;;;9.40;8.40;;;16.80;99.90;;;;;;5070012;28;20033;-75
2023/09/27 00:50:51;;;;;;;13.18;9.32;;;16.80;99.90;;;;;;5068305;28;20021;-75
2023/09/27 00:53:17;;;;;;;8.60;7.47;;;16.80;99.90;;;;;;5068197;28;20149;-75
2023/09/27 00:55:43;;;;;;;9.45;7.03;;;16.90;99.90;;;;;;5070674;28;20037;-75
2023/09/27 00:58:11;;;;;;;11.15;8.38;;;16.80;99.90;;;;;;5069319;28;20043;-75
2023/09/27 01:00:37;;;;;;;12.63;7.32;;;16.80;99.90;;;;;;5072744;28;20024;-75
2023/09/27 01:03:04;;;;;;;11.30;7.60;;;16.80;99.90;;;;;;5069406;28;20024;-75
2023/09/27 01:05:30;;;;;;;9.60;6.35;;;16.80;99.90;;;;;;5070560;28;20130;-75
2023/09/27 01:07:56;;;;;;;6.80;6.10;;;16.70;99.90;;;;;;5073409;28;20074;-75
2023/09/27 01:10:22;;;;;;;11.48;7.20;;;16.70;99.90;;;;;;5070722;28;20487;-75
2023/09/27 01:12:47;;;;;;;8.65;6.88;;;16.70;99.90;;;;;;5066794;28;20036;-75
2023/09/27 01:15:13;;;;;;;12.82;7.07;;;16.70;99.90;;;;;;5072242;28;20051;-75
2023/09/27 01:17:55;;;;;;;11.05;7.13;;;16.70;99.90;;;;;;5064248;28;20395;-75
2023/09/27 01:20:21;;;;;;;10.43;8.02;;;16.70;99.90;;;;;;5067627;28;20586;-75
2023/09/27 01:23:00;;;;;;;10.75;7.47;;;16.70;99.90;;;;;;5068831;28;20024;-75
2023/09/27 01:25:34;;;;;;;12.80;7.95;;;16.70;99.90;;;;;;5048059;28;20040;-75
2023/09/27 01:28:02;;;;;;;9.38;7.85;;;16.60;99.90;;;;;;5051127;28;20067;-75
2023/09/27 01:30:33;;;;;;;10.55;8.98;;;16.60;99.90;;;;;;5071103;28;20028;-75
2023/09/27 01:33:05;;;;;;;18.80;9.13;;;16.50;99.90;;;;;;5068221;28;20052;-75
2023/09/27 01:35:38;;;;;;;16.95;7.72;;;16.40;99.90;;;;;;5069566;28;20506;-75
2023/09/27 01:38:06;;;;;;;9.88;7.50;;;16.40;99.90;;;;;;5064822;28;20093;-76
2023/09/27 01:40:33;;;;;;;13.95;7.93;;;16.30;99.90;;;;;;5070659;28;20020;-75
2023/09/27 01:43:00;;;;;;;16.30;9.70;;;16.20;99.90;;;;;;5048475;28;20039;-75
2023/09/27 01:45:26;;;;;;;16.05;8.77;;;16.20;99.90;;;;;;5071071;28;20008;-75
2023/09/27 01:47:52;;;;;;;9.27;6.75;;;16.20;99.90;;;;;;5071804;28;20522;-75
2023/09/27 01:50:23;;;;;;;16.70;8.45;;;16.20;99.90;;;;;;5068068;28;20032;-76
2023/09/27 01:52:50;;;;;;;8.05;7.18;;;16.20;99.90;;;;;;5070642;28;20032;-76
2023/09/27 01:55:16;;;;;;;9.95;7.30;;;16.30;99.90;;;;;;5069929;28;20024;-75
2023/09/27 01:57:41;;;;;;;9.13;7.25;;;16.30;99.90;;;;;;5069867;28;20378;-75
2023/09/27 02:00:11;;;;;;;13.52;7.32;;;16.40;99.90;;;;;;5071485;28;20062;-76
2023/09/27 02:02:38;;;;;;;11.90;8.10;;;16.30;99.90;;;;;;5047808;28;20132;-76
2023/09/27 02:05:04;;;;;;;8.25;7.47;;;16.30;99.90;;;;;;5069037;28;20017;-75
2023/09/27 02:07:30;;;;;;;11.68;7.85;;;16.30;99.90;;;;;;5065506;28;20078;-75
2023/09/27 02:09:56;;;;;;;9.05;7.60;;;16.30;99.90;;;;;;5067585;28;20024;-75
2023/09/27 02:12:22;;;;;;;10.45;8.10;;;16.30;99.90;;;;;;5066528;28;20028;-75
2023/09/27 02:14:47;;;;;;;13.63;7.75;;;16.20;99.90;;;;;;5068992;28;20392;-75
2023/09/27 02:17:13;;;;;;;13.18;7.50;;;16.20;99.90;;;;;;5068682;28;20041;-75
2023/09/27 02:19:39;;;;;;;10.90;8.10;;;16.20;99.90;;;;;;5071937;28;20021;-75
2023/09/27 02:22:06;;;;;;;9.75;8.02;;;16.20;99.90;;;;;;5065217;28;20032;-75
2023/09/27 02:24:31;;;;;;;10.77;7.60;;;16.20;99.90;;;;;;5047466;28;20025;-75
2023/09/27 02:26:57;;;;;;;8.80;7.28;;;16.20;99.90;;;;;;5067569;28;20048;-74
2023/09/27 02:29:23;;;;;;;13.65;8.38;;;16.20;99.90;;;;;;5070818;28;20498;-75
2023/09/27 02:31:49;;;;;;;11.05;7.40;;;16.10;99.90;;;;;;5070289;28;20031;-76
2023/09/27 02:34:14;;;;;;;11.00;7.38;;;16.10;99.90;;;;;;5068437;28;20465;-75
2023/09/27 02:36:41;;;;;;;14.43;7.18;;;16.10;99.90;;;;;;5063385;28;20830;-75
2023/09/27 02:39:07;;;;;;;11.35;8.25;;;16.10;99.90;;;;;;5069392;28;20380;-74
2023/09/27 02:41:33;;;;;;;12.48;7.32;;;16.10;99.90;;;;;;5069591;28;20544;-74
2023/09/27 02:43:59;;;;;;;9.32;7.03;;;16.00;99.90;;;;;;5066219;28;20477;-74
2023/09/27 02:46:25;;;;;;;9.85;7.80;;;16.00;99.90;;;;;;5071927;28;20027;-75
2023/09/27 02:48:51;;;;;;;9.90;7.55;;;16.00;99.90;;;;;;5073789;28;20472;-73
2023/09/27 02:51:17;;;;;;;9.98;6.85;;;16.00;99.90;;;;;;5069379;28;20432;-73
2023/09/27 02:53:43;;;;;;;10.30;7.47;;;15.90;99.90;;;;;;5069114;28;20492;-73
2023/09/27 02:56:09;;;;;;;11.18;6.45;;;15.90;99.90;;;;;;5069647;28;20040;-73
2023/09/27 02:58:35;;;;;;;7.93;6.78;;;15.90;99.90;;;;;;5067635;28;20033;-73
2023/09/27 03:01:00;;;;;;;9.52;7.30;;;15.90;99.90;;;;;;5069239;28;20082;-74
2023/09/27 03:03:27;;;;;;;12.45;7.53;;;15.90;99.90;;;;;;5070020;28;20073;-73
2023/09/27 03:05:53;;;;;;;13.23;7.25;;;15.80;99.90;;;;;;5070355;28;20021;-73
2023/09/27 03:08:19;;;;;;;10.43;7.35;;;15.80;99.90;;;;;;5069580;28;20126;-74
2023/09/27 03:10:44;;;;;;;12.05;8.50;;;15.80;99.90;;;;;;5051123;28;20480;-74
2023/09/27 03:13:11;;;;;;;15.68;9.07;;;15.70;99.90;;;;;;5069808;28;20438;-73
2023/09/27 03:15:37;;;;;;;11.48;8.70;;;15.70;99.90;;;;;;5069942;28;20043;-73
2023/09/27 03:18:03;;;;;;;8.93;8.02;;;15.70;99.90;;;;;;5048295;28;20033;-74
2023/09/27 03:20:31;;;;;;;12.02;8.70;;;15.70;99.90;;;;;;5070322;28;20477;-74
2023/09/27 03:22:57;;;;;;;13.52;7.90;;;15.70;99.90;;;;;;5061377;28;20060;-74
2023/09/27 03:25:22;;;;;;;12.18;8.35;;;15.70;99.90;;;;;;5072811;28;20067;-73
2023/09/27 03:27:48;;;;;;;9.48;8.13;;;15.70;99.90;;;;;;5073397;28;20473;-73
2023/09/27 03:30:14;;;;;;;12.60;8.77;;;15.70;99.90;;;;;;5072067;28;20024;-73
2023/09/27 03:32:40;;;;;;;12.52;8.60;;;15.70;99.90;;;;;;5068616;28;20382;-73
2023/09/27 03:35:07;;;;;;;12.32;8.55;;;15.70;99.90;;;;;;5068134;28;20032;-73
2023/09/27 03:37:34;;;;;;;13.75;8.85;;;15.70;99.90;;;;;;5069625;28;20033;-73
2023/09/27 03:40:03;;;;;;;13.52;8.48;;;15.70;99.90;;;;;;5071034;28;20056;-74
2023/09/27 03:42:29;;;;;;;10.27;8.30;;;15.60;99.90;;;;;;5055511;28;20025;-74
2023/09/27 03:44:55;;;;;;;12.25;9.43;;;15.60;99.90;;;;;;5065115;28;20029;-74
2023/09/27 03:47:21;;;;;;;14.02;8.77;;;15.60;99.90;;;;;;5073271;28;20031;-73
2023/09/27 03:49:46;;;;;;;11.75;8.35;;;15.60;99.90;;;;;;5072150;28;20021;-74
2023/09/27 03:52:13;;;;;;;11.68;7.90;;;15.60;99.90;;;;;;5063630;28;20075;-74
2023/09/27 03:54:39;;;;;;;15.50;8.32;;;15.60;99.90;;;;;;5067476;28;20095;-73
2023/09/27 03:57:05;;;;;;;9.98;7.32;;;15.60;99.90;;;;;;5073641;28;20082;-75
2023/09/27 03:59:30;;;;;;;10.38;7.22;;;15.60;99.90;;;;;;5070999;28;20032;-74
2023/09/27 04:01:56;;;;;;;11.02;7.18;;;15.50;99.90;;;;;;5064226;28;20115;-73
2023/09/27 04:04:22;;;;;;;12.65;8.38;;;15.50;99.90;;;;;;5071326;28;20389;-73
2023/09/27 04:06:49;;;;;;;8.60;7.47;;;15.50;99.90;;;;;;5067785;28;20707;-73
2023/09/27 04:09:15;;;;;;;9.43;8.23;;;15.50;99.90;;;;;;5070299;28;20021;-73
2023/09/27 04:11:40;;;;;;;14.55;9.10;;;15.30;99.90;;;;;;5071670;28;20035;-73
2023/09/27 04:14:07;;;;;;;10.68;9.57;;;15.30;99.90;;;;;;5063010;28;20032;-75
2023/09/27 04:16:33;;;;;;;10.85;9.10;;;15.30;99.90;;;;;;5069031;28;20037;-73
2023/09/27 04:18:59;;;;;;;9.68;8.65;;;15.30;99.90;;;;;;5074433;28;20082;-73
2023/09/27 04:21:25;;;;;;;9.20;8.30;;;15.30;99.90;;;;;;5064648;28;20028;-74
2023/09/27 04:23:57;;;;;;;14.60;9.32;;;15.40;99.90;;;;;;5067882;28;20050;-74
2023/09/27 04:26:23;;;;;;;11.60;9.05;;;15.20;99.90;;;;;;5066208;28;20051;-74
2023/09/27 04:28:50;;;;;;;12.07;9.77;;;15.00;99.90;;;;;;5065677;28;20016;-73
2023/09/27 04:31:16;;;;;;;10.90;9.52;;;15.00;99.90;;;;;;5060037;28;20031;-73
2023/09/27 04:33:44;;;;;;;14.60;8.95;;;15.10;99.90;;;;;;5067144;28;20024;-73
2023/09/27 04:36:17;;;;;;;13.10;9.02;;;15.10;99.90;;;;;;5071521;28;20032;-73
2023/09/27 04:38:44;;;;;;;;;;;15.10;99.90;;;;;;5052786;28;20477;-73
2023/09/27 04:41:09;;;;;;;14.02;9.63;;;15.10;99.90;;;;;;5067817;28;19999;-73
2023/09/27 04:43:35;;;;;;;10.98;9.55;;;15.00;99.90;;;;;;5069630;28;20557;-74
2023/09/27 04:46:01;;;;;;;11.68;9.15;;;15.10;99.90;;;;;;5066450;28;20024;-73
2023/09/27 04:48:27;;;;;;;11.15;9.30;;;15.10;99.90;;;;;;5069247;28;20436;-73
2023/09/27 04:50:52;;;;;;;16.50;9.95;;;15.10;99.90;;;;;;5061146;28;20043;-73
2023/09/27 04:53:18;;;;;;;12.00;10.70;;;15.00;99.90;;;;;;5066252;28;20028;-73
2023/09/27 04:55:44;;;;;;;14.60;10.30;;;14.90;99.90;;;;;;5069257;28;20056;-73
2023/09/27 04:58:09;;;;;;;14.80;11.70;;;14.90;99.90;;;;;;5067328;28;20041;-73
2023/09/27 05:00:35;;;;;;;12.45;9.45;;;14.90;99.90;;;;;;5070401;28;20503;-73
2023/09/27 05:03:01;;;;;;;15.85;9.73;;;14.90;99.90;;;;;;5073437;28;20054;-73
2023/09/27 05:05:26;;;;;;;12.02;9.60;;;15.00;99.90;;;;;;5070204;28;20399;-73
2023/09/27 05:07:52;;;;;;;13.75;10.27;;;15.00;99.90;;;;;;5067895;28;20020;-73
2023/09/27 05:10:18;;;;;;;15.73;12.23;;;15.00;99.90;;;;;;5066466;28;20024;-74
2023/09/27 05:12:43;;;;;;;17.25;12.55;;;15.00;99.90;;;;;;5069137;28;20469;-73
2023/09/27 05:15:09;;;;;;;13.98;11.00;;;15.00;99.90;;;;;;5064863;28;20024;-74
2023/09/27 05:17:35;;;;;;;15.75;10.77;;;15.00;99.90;;;;;;5045322;28;20055;-73
2023/09/27 05:20:06;;;;;;;15.63;10.82;;;15.10;99.90;;;;;;5063213;28;20028;-74
2023/09/27 05:22:31;;;;;;;12.50;9.63;;;15.10;99.90;;;;;;5065566;28;20550;-74
2023/09/27 05:24:57;;;;;;;11.88;9.40;;;15.10;99.90;;;;;;5045954;28;20020;-74
2023/09/27 05:27:24;;;;;;;15.25;11.38;;;15.10;99.90;;;;;;5045751;28;20124;-73
2023/09/27 05:29:49;;;;;;;14.75;10.75;;;15.00;99.90;;;;;;5062287;28;20024;-74
2023/09/27 05:32:15;;;;;;;13.95;10.40;;;15.10;99.90;;;;;;5070135;28;20028;-73
2023/09/27 05:34:41;;;;;;;18.83;12.60;;;15.00;99.90;;;;;;5065113;28;20029;-74
2023/09/27 05:37:06;;;;;;;19.95;11.05;;;15.00;99.90;;;;;;5068672;28;20291;-74
2023/09/27 05:39:32;;;;;;;27.45;12.00;;;15.00;99.90;;;;;;5071300;28;20477;-73
2023/09/27 05:41:58;;;;;;;24.25;10.98;;;15.00;99.90;;;;;;5064857;28;20024;-73
2023/09/27 05:44:23;;;;;;;15.13;11.88;;;14.90;99.90;;;;;;5068086;28;20083;-74
2023/09/27 05:46:49;;;;;;;16.10;10.07;;;14.90;99.90;;;;;;5065807;28;20077;-73
2023/09/27 05:49:15;;;;;;;22.02;11.00;;;14.80;99.90;;;;;;5067950;28;20079;-73
2023/09/27 05:51:41;;;;;;;15.05;10.57;;;14.90;99.90;;;;;;5068496;28;20111;-73
2023/09/27 05:54:07;;;;;;;14.65;9.13;;;14.90;99.90;;;;;;5055066;28;20032;-73
2023/09/27 05:56:33;;;;;;;15.20;9.90;;;14.80;99.90;;;;;;5063070;28;20045;-73
2023/09/27 05:59:01;;;;;;;17.77;10.63;;;14.60;99.90;;;;;;5042984;28;20355;-73
2023/09/27 06:01:27;;;;;;;22.27;11.75;;;14.60;99.90;;;;;;5065375;28;20037;-73
2023/09/27 06:03:54;;;;;;;15.80;11.75;;;14.60;99.90;;;;;;5069318;28;20042;-73
2023/09/27 06:06:20;;;;;;;16.83;11.27;;;14.60;99.90;;;;;;5065630;28;20016;-73
2023/09/27 06:08:45;;;;;;;18.15;12.57;;;14.70;99.90;;;;;;5067157;28;20024;-73
2023/09/27 06:11:12;;;;;;;19.45;13.75;;;14.70;99.90;;;;;;5069978;28;20473;-73
2023/09/27 06:13:37;;;;;;;19.83;13.50;;;14.70;99.90;;;;;;5063707;28;20021;-73
2023/09/27 06:16:11;;;;;;;16.10;12.68;;;14.70;99.90;;;;;;5068649;28;20392;-73
2023/09/27 06:18:37;;;;;;;20.85;13.68;;;14.80;99.90;;;;;;5064730;28;20099;-73
2023/09/27 06:21:04;;;;;;;17.92;13.15;;;14.80;99.90;;;;;;5071051;28;20545;-73
2023/09/27 06:23:30;;;;;;;17.45;11.32;;;14.80;99.90;;;;;;5071856;28;20527;-73
2023/09/27 06:25:55;;;;;;;20.70;12.60;;;14.90;99.90;;;;;;5071073;28;20029;-74
2023/09/27 06:28:21;;;;;;;17.55;12.13;;;14.90;99.90;;;;;;5070071;28;20078;-73
2023/09/27 06:30:47;;;;;;;18.13;14.88;;;14.90;99.90;;;;;;5071763;28;20096;-73
2023/09/27 06:33:12;;;;;;;16.83;13.02;;;14.80;99.90;;;;;;5071356;28;20029;-73
2023/09/27 06:35:39;;;;;;;16.60;12.75;;;14.80;99.90;;;;;;5067611;28;20078;-74
2023/09/27 06:38:05;;;;;;;20.92;12.35;;;14.80;99.90;;;;;;5044468;28;20067;-74
2023/09/27 06:40:32;;;;;;;15.85;12.27;;;14.70;99.90;;;;;;5053391;28;20380;-75
2023/09/27 06:42:59;;;;;;;19.42;12.68;;;14.60;99.90;;;;;;5071017;28;20039;-75
2023/09/27 06:45:25;;;;;;;19.95;13.77;;;14.60;99.90;;;;;;5074060;28;20036;-77
2023/09/27 06:47:51;;;;;;;15.80;12.80;;;14.60;99.90;;;;;;5064619;28;20024;-74
2023/09/27 06:50:17;;;;;;;18.27;12.15;;;14.70;99.90;;;;;;5070846;28;20146;-73
2023/09/27 06:52:45;;;;;;;17.77;12.35;;;14.70;99.90;;;;;;5071845;28;20021;-73
2023/09/27 06:55:12;;;;;;;20.58;12.95;;;14.70;99.90;;;;;;5067585;28;20129;-76
2023/09/27 06:57:40;;;;;;;20.17;13.02;;;14.70;99.90;;;;;;5072312;28;20062;-74
2023/09/27 07:00:18;;;;;;;19.92;13.50;;;14.80;99.90;;;;;;5071030;28;20055;-74
2023/09/27 07:02:46;;;;;;;15.73;13.70;;;15.00;99.90;;;;;;5067720;28;20035;-74
2023/09/27 07:05:11;;;;;;;21.80;16.17;;;15.10;99.90;;;;;;5067556;28;20362;-73
2023/09/27 07:07:38;;;;;;;25.48;18.08;;;15.20;99.90;;;;;;5068001;28;20522;-76
2023/09/27 07:10:04;;;;;;;23.00;14.45;;;15.20;99.90;;;;;;5070560;28;20033;-75
2023/09/27 07:12:30;;;;;;;23.90;17.05;;;15.10;99.90;;;;;;5072715;28;20019;-76
2023/09/27 07:14:58;;;;;;;21.02;16.17;;;15.10;99.90;;;;;;5066103;28;20029;-76
2023/09/27 07:17:25;;;;;;;25.73;17.00;;;15.20;99.90;;;;;;5050463;28;20043;-74
2023/09/27 07:19:51;;;;;;;31.95;18.17;;;15.30;99.90;;;;;;5068791;28;20102;-73
2023/09/27 07:22:17;;;;;;;18.35;14.75;;;15.40;99.90;;;;;;5068265;28;20481;-74
2023/09/27 07:24:43;;;;;;;23.10;18.90;;;15.50;99.90;;;;;;5066257;28;20036;-74
2023/09/27 07:27:09;;;;;;;24.23;16.90;;;15.50;99.90;;;;;;5066777;28;20029;-73
2023/09/27 07:29:35;;;;;;;16.23;14.52;;;15.60;99.90;;;;;;5069107;28;20033;-74
2023/09/27 07:32:01;;;;;;;22.13;15.02;;;15.70;99.90;;;;;;5067824;28;20062;-75
2023/09/27 07:34:27;;;;;;;20.52;16.48;;;15.70;99.90;;;;;;5055469;28;20016;-75
2023/09/27 07:36:54;;;;;;;22.42;18.55;;;15.80;99.90;;;;;;5069930;28;20040;-74
2023/09/27 07:39:20;;;;;;;28.20;18.48;;;15.80;99.90;;;;;;5065286;28;20017;-76
2023/09/27 07:41:46;;;;;;;34.42;19.77;;;15.80;99.90;;;;;;5068839;28;20057;-74
2023/09/27 07:44:12;;;;;;;22.80;17.75;;;15.80;99.90;;;;;;5068429;28;20452;-74
2023/09/27 07:46:38;;;;;;;25.05;18.75;;;15.70;99.90;;;;;;5068695;28;20071;-75
2023/09/27 07:49:04;;;;;;;20.20;15.80;;;15.60;99.90;;;;;;5071315;28;20146;-73
2023/09/27 07:51:30;;;;;;;23.45;16.85;;;15.70;99.90;;;;;;5064044;28;20025;-73
2023/09/27 07:53:56;;;;;;;27.58;18.38;;;15.80;99.90;;;;;;5067978;28;20032;-74
2023/09/27 07:56:26;;;;;;;25.25;16.27;;;15.80;99.90;;;;;;5068978;28;20041;-74
2023/09/27 07:58:53;;;;;;;26.45;18.20;;;15.70;99.90;;;;;;5068165;28;20032;-75
2023/09/27 08:01:20;;;;;;;22.08;16.42;;;15.80;99.90;;;;;;5071858;28;20066;-74
2023/09/27 08:03:51;;;;;;;22.08;17.00;;;15.90;99.90;;;;;;5066670;28;20373;-74
2023/09/27 08:06:18;;;;;;;24.48;20.33;;;16.10;99.90;;;;;;5067138;28;20028;-75
2023/09/27 08:08:44;;;;;;;24.13;20.40;;;16.10;99.90;;;;;;5071718;28;20556;-74
2023/09/27 08:11:13;;;;;;;24.83;19.60;;;16.20;99.90;;;;;;5070463;28;20037;-75
2023/09/27 08:13:39;;;;;;;24.10;18.45;;;16.20;99.90;;;;;;5065128;28;20033;-74
2023/09/27 08:16:07;;;;;;;21.00;17.80;;;16.20;99.90;;;;;;5068824;28;20120;-74
2023/09/27 08:18:37;;;;;;;32.25;22.45;;;16.20;99.90;;;;;;5071988;28;20027;-75
2023/09/27 08:21:03;;;;;;;28.90;20.35;;;16.30;99.90;;;;;;5062900;28;20104;-74
2023/09/27 08:23:29;;;;;;;26.70;21.70;;;16.30;99.90;;;;;;5065771;28;20028;-76
2023/09/27 08:25:55;;;;;;;27.40;20.02;;;16.40;99.90;;;;;;5068265;28;20032;-75
2023/09/27 08:28:21;;;;;;;30.10;23.08;;;16.50;99.90;;;;;;5071325;28;20418;-75
2023/09/27 08:30:50;;;;;;;34.83;23.98;;;16.60;99.90;;;;;;5069782;28;20028;-75
2023/09/27 08:33:16;;;;;;;31.65;21.75;;;16.70;99.90;;;;;;5065794;28;20028;-74
2023/09/27 08:35:42;;;;;;;31.45;23.13;;;16.80;99.90;;;;;;5070909;28;20025;-76
2023/09/27 08:38:08;;;;;;;25.42;19.88;;;16.70;99.90;;;;;;5069510;28;20029;-75
2023/09/27 08:40:34;;;;;;;26.23;20.27;;;16.90;99.90;;;;;;5053297;28;20029;-74
2023/09/27 08:43:00;;;;;;;30.60;23.08;;;17.00;99.90;;;;;;5070169;28;20052;-76
2023/09/27 08:45:27;;;;;;;27.27;20.25;;;17.00;99.90;;;;;;5067769;28;20055;-74
2023/09/27 08:47:54;;;;;;;24.60;18.77;;;17.10;99.90;;;;;;5068971;28;20032;-75
2023/09/27 08:50:20;;;;;;;30.77;18.13;;;17.20;99.90;;;;;;5065778;28;20016;-75
2023/09/27 08:52:47;;;;;;;27.05;18.13;;;17.40;99.90;;;;;;5069968;28;20041;-75
2023/09/27 08:55:14;;;;;;;21.00;18.63;;;17.50;99.90;;;;;;5062521;28;20485;-75
2023/09/27 08:57:44;;;;;;;23.90;17.25;;;17.60;99.90;;;;;;5070489;28;20072;-75
2023/09/27 09:00:13;;;;;;;23.98;16.42;;;17.70;99.90;;;;;;5063250;28;20378;-76
2023/09/27 09:02:43;;;;;;;18.75;15.48;;;17.80;99.90;;;;;;5070408;28;20036;-75
2023/09/27 09:05:12;;;;;;;20.92;16.00;;;17.90;99.90;;;;;;5064541;28;20029;-75
2023/09/27 09:07:42;;;;;;;17.70;15.15;;;18.00;99.90;;;;;;5067347;28;20021;-75
2023/09/27 09:10:13;;;;;;;19.35;15.27;;;18.10;99.90;;;;;;5061854;28;20091;-75
2023/09/27 09:12:41;;;;;;;18.42;11.32;;;18.20;99.90;;;;;;5067987;28;20490;-75
2023/09/27 09:15:14;;;;;;;16.63;12.70;;;18.40;99.90;;;;;;5069234;28;20056;-75
2023/09/27 09:17:42;;;;;;;14.77;12.35;;;18.60;99.90;;;;;;5065241;28;20060;-76
2023/09/27 09:20:16;;;;;;;14.85;12.88;;;18.70;99.90;;;;;;5065132;28;20029;-76
2023/09/27 09:22:43;;;;;;;16.27;12.75;;;18.80;99.90;;;;;;5069559;28;20031;-75
2023/09/27 09:25:08;;;;;;;15.70;11.20;;;19.00;99.90;;;;;;5065059;28;20021;-75
2023/09/27 09:27:34;;;;;;;15.15;11.27;;;19.10;99.90;;;;;;5068317;28;20033;-75
2023/09/27 09:30:02;;;;;;;14.45;11.20;;;19.20;99.90;;;;;;5064242;28;20024;-75
2023/09/27 09:32:29;;;;;;;13.85;10.27;;;19.30;99.90;;;;;;5066825;28;20028;-75
2023/09/27 09:34:55;;;;;;;14.65;11.32;;;19.40;99.90;;;;;;5069841;28;20021;-75
2023/09/27 09:37:23;;;;;;;18.05;11.70;;;19.50;99.90;;;;;;5052820;28;20492;-76
2023/09/27 09:39:53;;;;;;;11.80;9.88;;;19.40;99.90;;;;;;5062635;28;20032;-75
2023/09/27 09:42:48;;;;;;;14.38;8.60;;;19.50;99.90;;;;;;5067475;28;20055;-76
2023/09/27 09:45:14;;;;;;;11.48;7.65;;;19.50;99.90;;;;;;5064178;28;20037;-75
2023/09/27 09:47:43;;;;;;;12.07;7.30;;;19.60;99.90;;;;;;5068036;28;20354;-75
2023/09/27 09:50:17;;;;;;;13.85;9.27;;;19.60;99.90;;;;;;5067086;28;20024;-75
2023/09/27 09:52:53;;;;;;;13.95;9.00;;;19.60;99.90;;;;;;5068062;28;20024;-76
2023/09/27 09:55:24;;;;;;;12.82;9.95;;;19.70;99.90;;;;;;5071725;28;20039;-76
2023/09/27 09:58:07;;;;;;;11.20;8.70;;;19.60;99.90;;;;;;5064017;28;20075;-76
2023/09/27 10:00:35;;;;;;;14.35;7.97;;;19.60;99.90;;;;;;5046951;28;20421;-76
2023/09/27 10:03:14;;;;;;;10.20;7.72;;;19.70;99.90;;;;;;5070179;28;20112;-76
2023/09/27 10:05:42;;;;;;;15.85;7.45;;;19.80;99.90;;;;;;5065987;28;20028;-76
2023/09/27 10:08:08;;;;;;;15.55;7.70;;;19.70;99.90;;;;;;5069412;28;20115;-76
2023/09/27 10:10:35;;;;;;;14.77;8.38;;;19.80;99.90;;;;;;5063647;28;20690;-76
2023/09/27 10:13:04;;;;;;;17.90;9.38;;;20.00;99.90;;;;;;5068884;28;20066;-75
2023/09/27 10:15:33;;;;;;;13.98;10.15;;;20.10;99.90;;;;;;5062691;28;20393;-75
2023/09/27 10:18:24;;;;;;;10.25;8.00;;;20.30;99.90;;;;;;5061976;28;20067;-75
2023/09/27 10:21:08;;;;;;;9.63;8.52;;;20.30;99.90;;;;;;5062615;28;20020;-75
2023/09/27 10:23:58;;;;;;;12.23;8.80;;;20.40;99.90;;;;;;5070651;28;20481;-75
2023/09/27 10:26:26;;;;;;;9.43;7.00;;;20.70;99.90;;;;;;5052428;28;20128;-75
2023/09/27 10:29:13;;;;;;;31.23;9.15;;;20.90;99.90;;;;;;5043142;28;20557;-75
2023/09/27 10:31:57;;;;;;;70.93;18.88;;;21.20;99.90;;;;;;5069244;28;20034;-77
2023/09/27 10:34:25;;;;;;;27.45;11.65;;;21.40;99.90;;;;;;5068638;28;20074;-77
2023/09/27 10:36:53;;;;;;;26.23;11.02;;;21.60;99.90;;;;;;5057719;28;20043;-75
2023/09/27 10:39:19;;;;;;;24.73;9.90;;;21.60;99.90;;;;;;5068292;28;20103;-75
2023/09/27 10:41:48;;;;;;;15.75;9.27;;;21.60;99.90;;;;;;5063911;28;20487;-78
2023/09/27 10:44:34;;;;;;;14.32;9.07;;;21.50;99.90;;;;;;5068409;28;20031;-76
2023/09/27 10:47:01;;;;;;;19.55;8.10;;;21.70;99.90;;;;;;5050931;28;20029;-77
2023/09/27 10:49:38;;;;;;;24.10;7.72;;;21.80;99.90;;;;;;5064338;28;20025;-75
2023/09/27 10:52:26;;;;;;;13.95;5.47;;;21.90;99.90;;;;;;5065620;28;20074;-78
2023/09/27 10:54:52;;;;;;;26.38;9.18;;;22.00;99.90;;;;;;5063852;28;20029;-76
2023/09/27 10:57:23;;;;;;;11.02;7.05;;;22.10;99.90;;;;;;5067114;28;20158;-77
2023/09/27 10:59:51;;;;;;;10.55;5.97;;;22.10;99.90;;;;;;5059471;28;20021;-77
2023/09/27 11:02:30;;;;;;;11.57;6.57;;;22.30;99.90;;;;;;5064465;28;20021;-77
2023/09/27 11:04:56;;;;;;;53.67;10.82;;;22.40;99.90;;;;;;5068309;28;20023;-77
2023/09/27 11:07:22;;;;;;;78.25;13.98;;;22.40;99.90;;;;;;5067589;28;20392;-78
2023/09/27 11:09:49;;;;;;;9.77;5.28;;;22.40;99.90;;;;;;5072144;28;20107;-78
2023/09/27 11:12:24;;;;;;;10.20;4.82;;;22.30;99.90;;;;;;5062599;28;20029;-78
2023/09/27 11:14:50;;;;;;;17.40;6.10;;;22.50;99.90;;;;;;5072188;28;20035;-77
2023/09/27 11:17:21;;;;;;;8.55;4.95;;;22.70;99.90;;;;;;5069376;28;20055;-78
2023/09/27 11:19:46;;;;;;;15.65;4.75;;;22.70;99.90;;;;;;5071746;28;20457;-77
2023/09/27 11:22:22;;;;;;;6.20;3.88;;;22.70;99.90;;;;;;5069645;28;20040;-77
2023/09/27 11:24:48;;;;;;;9.70;4.03;;;22.60;99.90;;;;;;5065801;28;20020;-79
2023/09/27 11:27:19;;;;;;;5.55;4.15;;;22.60;99.90;;;;;;5072353;28;20392;-78
2023/09/27 11:29:53;;;;;;;13.65;5.15;;;22.60;99.90;;;;;;5065730;28;20025;-77
2023/09/27 11:32:20;;;;;;;7.82;3.88;;;22.60;99.90;;;;;;5068776;28;20029;-78
2023/09/27 11:34:56;;;;;;;10.43;4.88;;;22.60;99.90;;;;;;5067770;28;20702;-77
2023/09/27 11:37:23;;;;;;;8.15;5.55;;;22.70;99.90;;;;;;5067324;28;20497;-78
2023/09/27 11:39:52;;;;;;;5.40;4.85;;;22.80;99.90;;;;;;5067620;28;20037;-78
2023/09/27 11:42:22;;;;;;;8.15;5.85;;;23.00;99.90;;;;;;5068231;28;20024;-78
2023/09/27 11:45:04;;;;;;;7.00;5.78;;;23.00;99.90;;;;;;5067447;28;20021;-80
2023/09/27 11:47:31;;;;;;;;;;;23.10;99.90;;;;;;5066874;28;20029;-78
2023/09/27 11:49:57;;;;;;;15.65;4.35;;;23.10;99.90;;;;;;5067850;28;20300;-79
2023/09/27 11:52:23;;;;;;;10.50;4.78;;;23.10;99.90;;;;;;5070836;28;20552;-78
2023/09/27 11:54:49;;;;;;;9.10;4.35;;;23.10;99.90;;;;;;5068594;28;20119;-77
2023/09/27 11:57:15;;;;;;;8.80;4.95;;;23.10;99.90;;;;;;5071318;28;20508;-79
2023/09/27 11:59:40;;;;;;;7.97;5.13;;;23.10;99.90;;;;;;5060100;28;20078;-78
2023/09/27 12:02:08;;;;;;;9.90;5.97;;;23.10;99.90;;;;;;5071233;28;20028;-76
2023/09/27 12:04:34;;;;;;;8.23;6.38;;;23.10;99.90;;;;;;5064149;28;20032;-78
2023/09/27 12:07:00;;;;;;;10.57;5.93;;;23.00;99.90;;;;;;5053274;28;20412;-77
2023/09/27 12:09:25;;;;;;;10.93;6.50;;;22.90;99.90;;;;;;5065510;28;20070;-77
2023/09/27 12:11:51;;;;;;;7.50;4.78;;;22.80;99.90;;;;;;5072751;28;20086;-76
2023/09/27 12:14:17;;;;;;;9.85;7.60;;;22.80;99.90;;;;;;5066313;28;20030;-77
2023/09/27 12:16:42;;;;;;;9.48;4.55;;;22.80;99.90;;;;;;5071518;28;20051;-76
2023/09/27 12:19:09;;;;;;;11.02;6.65;;;22.70;99.90;;;;;;5071697;28;20534;-76
2023/09/27 12:21:37;;;;;;;10.30;6.38;;;22.60;99.90;;;;;;5070712;28;20059;-76
2023/09/27 12:24:05;;;;;;;10.68;5.50;;;22.70;99.90;;;;;;5071908;28;20473;-76
2023/09/27 12:26:31;;;;;;;7.63;6.20;;;22.70;99.90;;;;;;5049629;28;20017;-76
2023/09/27 12:29:26;;;;;;;8.85;6.30;;;22.80;99.90;;;;;;5070796;28;20028;-76
2023/09/27 12:31:53;;;;;;;8.07;6.03;;;22.90;99.90;;;;;;5048188;28;20024;-76
2023/09/27 12:34:19;;;;;;;12.07;6.25;;;22.90;99.90;;;;;;5051726;28;20665;-76
2023/09/27 12:36:45;;;;;;;6.95;6.18;;;23.00;99.90;;;;;;5053279;28;20041;-76
2023/09/27 12:39:11;;;;;;;9.65;7.82;;;23.10;99.90;;;;;;5066846;28;20077;-76